sensor_id;sensor_type;location;lat;lon;timestamp;P1;durP1;ratioP1;P2;durP2;ratioP2
81036;SDS011;70521;47.468;19.306;2023-12-20T00:00:40;41.63;;;37.85;;
81036;SDS011;70521;47.468;19.306;2023-12-20T00:03:41;36.72;;;33.30;;
81036;SDS011;70521;47.468;19.306;2023-12-20T00:06:42;34.30;;;31.38;;
81036;SDS011;70521;47.468;19.306;2023-12-20T00:09:42;39.80;;;36.03;;
81036;SDS011;70521;47.468;19.306;2023-12-20T00:12:43;31.90;;;28.52;;
81036;SDS011;70521;47.468;19.306;2023-12-20T00:15:44;45.97;;;42.40;;
81036;SDS011;70521;47.468;19.306;2023-12-20T00:18:45;45.88;;;42.10;;
81036;SDS011;70521;47.468;19.306;2023-12-20T00:21:46;37.78;;;34.67;;
81036;SDS011;70521;47.468;19.306;2023-12-20T00:24:47;49.22;;;45.10;;
81036;SDS011;70521;47.468;19.306;2023-12-20T00:27:48;55.63;;;51.60;;
81036;SDS011;70521;47.468;19.306;2023-12-20T00:30:49;37.78;;;33.90;;
81036;SDS011;70521;47.468;19.306;2023-12-20T00:33:50;32.15;;;29.17;;
81036;SDS011;70521;47.468;19.306;2023-12-20T00:36:50;41.63;;;33.28;;
81036;SDS011;70521;47.468;19.306;2023-12-20T00:39:51;38.55;;;34.92;;
81036;SDS011;70521;47.468;19.306;2023-12-20T00:42:52;31.73;;;28.83;;
81036;SDS011;70521;47.468;19.306;2023-12-20T00:45:53;42.42;;;38.95;;
81036;SDS011;70521;47.468;19.306;2023-12-20T00:48:56;40.30;;;36.75;;
81036;SDS011;70521;47.468;19.306;2023-12-20T00:51:57;40.78;;;35.75;;
81036;SDS011;70521;47.468;19.306;2023-12-20T00:54:57;42.40;;;37.90;;
81036;SDS011;70521;47.468;19.306;2023-12-20T00:57:58;36.53;;;32.50;;
81036;SDS011;70521;47.468;19.306;2023-12-20T01:01:00;44.70;;;40.00;;
81036;SDS011;70521;47.468;19.306;2023-12-20T01:04:02;38.38;;;34.83;;
81036;SDS011;70521;47.468;19.306;2023-12-20T01:07:03;38.95;;;28.17;;
81036;SDS011;70521;47.468;19.306;2023-12-20T01:10:04;38.58;;;34.83;;
81036;SDS011;70521;47.468;19.306;2023-12-20T01:13:05;57.45;;;52.75;;
81036;SDS011;70521;47.468;19.306;2023-12-20T01:16:06;65.38;;;60.22;;
81036;SDS011;70521;47.468;19.306;2023-12-20T01:19:07;40.03;;;34.00;;
81036;SDS011;70521;47.468;19.306;2023-12-20T01:22:08;40.28;;;35.03;;
81036;SDS011;70521;47.468;19.306;2023-12-20T01:25:09;48.78;;;43.08;;
81036;SDS011;70521;47.468;19.306;2023-12-20T01:28:10;55.42;;;46.70;;
81036;SDS011;70521;47.468;19.306;2023-12-20T01:31:11;47.17;;;41.65;;
81036;SDS011;70521;47.468;19.306;2023-12-20T01:34:12;46.90;;;42.22;;
81036;SDS011;70521;47.468;19.306;2023-12-20T01:37:13;55.33;;;39.58;;
81036;SDS011;70521;47.468;19.306;2023-12-20T01:40:14;43.15;;;38.53;;
81036;SDS011;70521;47.468;19.306;2023-12-20T01:43:15;46.45;;;41.75;;
81036;SDS011;70521;47.468;19.306;2023-12-20T01:46:16;41.88;;;36.17;;
81036;SDS011;70521;47.468;19.306;2023-12-20T01:49:17;56.88;;;51.90;;
81036;SDS011;70521;47.468;19.306;2023-12-20T01:52:19;47.50;;;39.75;;
81036;SDS011;70521;47.468;19.306;2023-12-20T01:55:20;47.30;;;42.67;;
81036;SDS011;70521;47.468;19.306;2023-12-20T01:58:21;42.20;;;35.70;;
81036;SDS011;70521;47.468;19.306;2023-12-20T02:01:24;38.33;;;34.42;;
81036;SDS011;70521;47.468;19.306;2023-12-20T02:04:25;48.53;;;44.33;;
81036;SDS011;70521;47.468;19.306;2023-12-20T02:07:26;49.40;;;44.83;;
81036;SDS011;70521;47.468;19.306;2023-12-20T02:10:27;35.20;;;31.55;;
81036;SDS011;70521;47.468;19.306;2023-12-20T02:13:28;41.65;;;37.58;;
81036;SDS011;70521;47.468;19.306;2023-12-20T02:16:29;41.97;;;36.78;;
81036;SDS011;70521;47.468;19.306;2023-12-20T02:19:30;53.90;;;48.92;;
81036;SDS011;70521;47.468;19.306;2023-12-20T02:22:32;37.60;;;30.75;;
81036;SDS011;70521;47.468;19.306;2023-12-20T02:25:33;48.63;;;44.33;;
81036;SDS011;70521;47.468;19.306;2023-12-20T02:28:34;40.30;;;36.42;;
81036;SDS011;70521;47.468;19.306;2023-12-20T02:31:35;48.78;;;44.75;;
81036;SDS011;70521;47.468;19.306;2023-12-20T02:34:36;40.40;;;36.92;;
81036;SDS011;70521;47.468;19.306;2023-12-20T02:37:37;48.92;;;44.33;;
81036;SDS011;70521;47.468;19.306;2023-12-20T02:40:38;38.78;;;34.88;;
81036;SDS011;70521;47.468;19.306;2023-12-20T02:43:39;38.92;;;34.60;;
81036;SDS011;70521;47.468;19.306;2023-12-20T02:46:40;50.53;;;40.20;;
81036;SDS011;70521;47.468;19.306;2023-12-20T02:49:41;44.70;;;40.70;;
81036;SDS011;70521;47.468;19.306;2023-12-20T02:52:44;41.00;;;37.17;;
81036;SDS011;70521;47.468;19.306;2023-12-20T02:55:45;44.67;;;40.70;;
81036;SDS011;70521;47.468;19.306;2023-12-20T02:58:46;43.63;;;39.75;;
81036;SDS011;70521;47.468;19.306;2023-12-20T03:01:46;49.53;;;45.47;;
81036;SDS011;70521;47.468;19.306;2023-12-20T03:04:47;53.38;;;48.92;;
81036;SDS011;70521;47.468;19.306;2023-12-20T03:07:48;42.05;;;37.90;;
81036;SDS011;70521;47.468;19.306;2023-12-20T03:10:49;35.58;;;32.30;;
81036;SDS011;70521;47.468;19.306;2023-12-20T03:13:50;46.00;;;42.33;;
81036;SDS011;70521;47.468;19.306;2023-12-20T03:16:51;44.15;;;40.40;;
81036;SDS011;70521;47.468;19.306;2023-12-20T03:19:52;42.10;;;38.58;;
81036;SDS011;70521;47.468;19.306;2023-12-20T03:22:53;37.15;;;33.63;;
81036;SDS011;70521;47.468;19.306;2023-12-20T03:25:54;38.78;;;33.20;;
81036;SDS011;70521;47.468;19.306;2023-12-20T03:28:55;50.47;;;46.67;;
81036;SDS011;70521;47.468;19.306;2023-12-20T03:31:56;44.10;;;40.63;;
81036;SDS011;70521;47.468;19.306;2023-12-20T03:34:57;42.85;;;38.58;;
81036;SDS011;70521;47.468;19.306;2023-12-20T03:37:58;40.85;;;36.97;;
81036;SDS011;70521;47.468;19.306;2023-12-20T03:41:00;42.85;;;38.35;;
81036;SDS011;70521;47.468;19.306;2023-12-20T03:44:01;43.47;;;35.67;;
81036;SDS011;70521;47.468;19.306;2023-12-20T03:47:02;42.45;;;38.03;;
81036;SDS011;70521;47.468;19.306;2023-12-20T03:50:03;56.50;;;52.42;;
81036;SDS011;70521;47.468;19.306;2023-12-20T03:53:05;44.42;;;39.97;;
81036;SDS011;70521;47.468;19.306;2023-12-20T03:56:06;50.60;;;46.13;;
81036;SDS011;70521;47.468;19.306;2023-12-20T03:59:07;55.30;;;50.83;;
81036;SDS011;70521;47.468;19.306;2023-12-20T04:02:08;38.08;;;33.58;;
81036;SDS011;70521;47.468;19.306;2023-12-20T04:05:09;60.28;;;55.55;;
81036;SDS011;70521;47.468;19.306;2023-12-20T04:08:10;41.40;;;37.53;;
81036;SDS011;70521;47.468;19.306;2023-12-20T04:11:11;47.63;;;42.90;;
81036;SDS011;70521;47.468;19.306;2023-12-20T04:14:12;61.53;;;56.65;;
81036;SDS011;70521;47.468;19.306;2023-12-20T04:17:14;47.78;;;43.03;;
81036;SDS011;70521;47.468;19.306;2023-12-20T04:20:16;51.65;;;47.58;;
81036;SDS011;70521;47.468;19.306;2023-12-20T04:23:18;37.03;;;33.70;;
81036;SDS011;70521;47.468;19.306;2023-12-20T04:26:20;42.85;;;38.80;;
81036;SDS011;70521;47.468;19.306;2023-12-20T04:29:21;40.20;;;36.67;;
81036;SDS011;70521;47.468;19.306;2023-12-20T04:32:22;41.17;;;37.65;;
81036;SDS011;70521;47.468;19.306;2023-12-20T04:35:23;46.42;;;42.47;;
81036;SDS011;70521;47.468;19.306;2023-12-20T04:38:23;33.25;;;29.65;;
81036;SDS011;70521;47.468;19.306;2023-12-20T04:41:24;44.65;;;40.75;;
81036;SDS011;70521;47.468;19.306;2023-12-20T04:44:25;44.15;;;40.05;;
81036;SDS011;70521;47.468;19.306;2023-12-20T04:47:27;48.30;;;44.13;;
81036;SDS011;70521;47.468;19.306;2023-12-20T04:50:28;38.70;;;35.17;;
81036;SDS011;70521;47.468;19.306;2023-12-20T04:53:29;49.42;;;45.42;;
81036;SDS011;70521;47.468;19.306;2023-12-20T04:56:30;38.35;;;33.95;;
81036;SDS011;70521;47.468;19.306;2023-12-20T04:59:31;49.90;;;45.28;;
81036;SDS011;70521;47.468;19.306;2023-12-20T05:02:32;40.55;;;36.35;;
81036;SDS011;70521;47.468;19.306;2023-12-20T05:05:33;45.08;;;41.75;;
81036;SDS011;70521;47.468;19.306;2023-12-20T05:08:34;41.35;;;37.55;;
81036;SDS011;70521;47.468;19.306;2023-12-20T05:11:35;39.80;;;36.63;;
81036;SDS011;70521;47.468;19.306;2023-12-20T05:14:36;46.30;;;42.22;;
81036;SDS011;70521;47.468;19.306;2023-12-20T05:17:37;44.85;;;40.53;;
81036;SDS011;70521;47.468;19.306;2023-12-20T05:20:38;32.17;;;29.13;;
81036;SDS011;70521;47.468;19.306;2023-12-20T05:23:39;52.03;;;47.53;;
81036;SDS011;70521;47.468;19.306;2023-12-20T05:26:40;44.03;;;40.25;;
81036;SDS011;70521;47.468;19.306;2023-12-20T05:29:41;34.15;;;31.13;;
81036;SDS011;70521;47.468;19.306;2023-12-20T05:32:42;54.95;;;50.80;;
81036;SDS011;70521;47.468;19.306;2023-12-20T05:35:43;50.42;;;45.95;;
81036;SDS011;70521;47.468;19.306;2023-12-20T05:38:44;50.13;;;45.90;;
81036;SDS011;70521;47.468;19.306;2023-12-20T05:41:45;48.88;;;43.60;;
81036;SDS011;70521;47.468;19.306;2023-12-20T05:44:46;45.58;;;41.53;;
81036;SDS011;70521;47.468;19.306;2023-12-20T05:47:47;58.88;;;44.92;;
81036;SDS011;70521;47.468;19.306;2023-12-20T05:50:48;45.25;;;40.88;;
81036;SDS011;70521;47.468;19.306;2023-12-20T05:53:51;55.28;;;40.78;;
81036;SDS011;70521;47.468;19.306;2023-12-20T05:56:51;46.65;;;39.33;;
81036;SDS011;70521;47.468;19.306;2023-12-20T05:59:52;72.25;;;64.75;;
81036;SDS011;70521;47.468;19.306;2023-12-20T06:02:53;52.97;;;34.55;;
81036;SDS011;70521;47.468;19.306;2023-12-20T06:05:54;50.50;;;44.72;;
81036;SDS011;70521;47.468;19.306;2023-12-20T06:08:55;30.83;;;27.83;;
81036;SDS011;70521;47.468;19.306;2023-12-20T06:11:56;58.30;;;50.35;;
81036;SDS011;70521;47.468;19.306;2023-12-20T06:14:57;33.08;;;31.08;;
81036;SDS011;70521;47.468;19.306;2023-12-20T06:17:58;26.95;;;24.38;;
81036;SDS011;70521;47.468;19.306;2023-12-20T06:20:59;33.33;;;31.38;;
81036;SDS011;70521;47.468;19.306;2023-12-20T06:24:00;44.10;;;34.17;;
81036;SDS011;70521;47.468;19.306;2023-12-20T06:30:02;50.55;;;46.58;;
81036;SDS011;70521;47.468;19.306;2023-12-20T06:33:03;48.78;;;41.25;;
81036;SDS011;70521;47.468;19.306;2023-12-20T06:36:04;61.67;;;57.22;;
81036;SDS011;70521;47.468;19.306;2023-12-20T06:39:05;47.30;;;42.83;;
81036;SDS011;70521;47.468;19.306;2023-12-20T06:42:06;55.17;;;50.15;;
81036;SDS011;70521;47.468;19.306;2023-12-20T06:45:07;64.88;;;59.97;;
81036;SDS011;70521;47.468;19.306;2023-12-20T06:48:08;54.63;;;48.38;;
81036;SDS011;70521;47.468;19.306;2023-12-20T06:51:14;44.72;;;35.13;;
81036;SDS011;70521;47.468;19.306;2023-12-20T06:54:15;63.83;;;38.90;;
81036;SDS011;70521;47.468;19.306;2023-12-20T06:57:16;44.90;;;36.72;;
81036;SDS011;70521;47.468;19.306;2023-12-20T07:00:17;50.67;;;41.95;;
81036;SDS011;70521;47.468;19.306;2023-12-20T07:03:20;48.03;;;34.40;;
81036;SDS011;70521;47.468;19.306;2023-12-20T07:06:21;54.47;;;48.85;;
81036;SDS011;70521;47.468;19.306;2023-12-20T07:09:22;50.42;;;34.70;;
81036;SDS011;70521;47.468;19.306;2023-12-20T07:12:23;41.80;;;34.70;;
81036;SDS011;70521;47.468;19.306;2023-12-20T07:15:24;43.38;;;34.40;;
81036;SDS011;70521;47.468;19.306;2023-12-20T07:18:25;53.20;;;43.78;;
81036;SDS011;70521;47.468;19.306;2023-12-20T07:21:26;48.22;;;43.40;;
81036;SDS011;70521;47.468;19.306;2023-12-20T07:24:27;44.13;;;39.60;;
81036;SDS011;70521;47.468;19.306;2023-12-20T07:27:28;54.22;;;49.58;;
81036;SDS011;70521;47.468;19.306;2023-12-20T07:30:29;44.67;;;39.97;;
81036;SDS011;70521;47.468;19.306;2023-12-20T07:33:30;43.92;;;37.10;;
81036;SDS011;70521;47.468;19.306;2023-12-20T07:36:31;55.60;;;51.20;;
81036;SDS011;70521;47.468;19.306;2023-12-20T07:39:32;44.70;;;35.03;;
81036;SDS011;70521;47.468;19.306;2023-12-20T07:42:33;44.60;;;37.33;;
81036;SDS011;70521;47.468;19.306;2023-12-20T07:45:34;42.28;;;37.80;;
81036;SDS011;70521;47.468;19.306;2023-12-20T07:48:35;42.45;;;33.97;;
81036;SDS011;70521;47.468;19.306;2023-12-20T07:51:36;47.78;;;42.88;;
81036;SDS011;70521;47.468;19.306;2023-12-20T07:54:37;44.92;;;34.60;;
81036;SDS011;70521;47.468;19.306;2023-12-20T07:57:38;38.10;;;34.33;;
81036;SDS011;70521;47.468;19.306;2023-12-20T08:00:39;36.38;;;29.80;;
81036;SDS011;70521;47.468;19.306;2023-12-20T08:03:40;37.33;;;33.10;;
81036;SDS011;70521;47.468;19.306;2023-12-20T08:06:41;32.92;;;29.42;;
81036;SDS011;70521;47.468;19.306;2023-12-20T08:09:43;56.30;;;51.08;;
81036;SDS011;70521;47.468;19.306;2023-12-20T08:12:44;51.80;;;43.83;;
81036;SDS011;70521;47.468;19.306;2023-12-20T08:15:45;45.80;;;39.67;;
81036;SDS011;70521;47.468;19.306;2023-12-20T08:18:47;46.03;;;33.83;;
81036;SDS011;70521;47.468;19.306;2023-12-20T08:21:48;44.90;;;41.22;;
81036;SDS011;70521;47.468;19.306;2023-12-20T08:24:49;45.45;;;40.67;;
81036;SDS011;70521;47.468;19.306;2023-12-20T08:27:50;41.88;;;35.20;;
81036;SDS011;70521;47.468;19.306;2023-12-20T08:30:51;49.95;;;42.35;;
81036;SDS011;70521;47.468;19.306;2023-12-20T08:33:54;58.38;;;44.92;;
81036;SDS011;70521;47.468;19.306;2023-12-20T08:36:55;43.63;;;34.08;;
81036;SDS011;70521;47.468;19.306;2023-12-20T08:39:56;44.30;;;36.00;;
81036;SDS011;70521;47.468;19.306;2023-12-20T08:42:57;55.10;;;42.85;;
81036;SDS011;70521;47.468;19.306;2023-12-20T08:45:58;41.67;;;37.70;;
81036;SDS011;70521;47.468;19.306;2023-12-20T08:48:59;44.42;;;39.95;;
81036;SDS011;70521;47.468;19.306;2023-12-20T08:52:01;40.60;;;33.72;;
81036;SDS011;70521;47.468;19.306;2023-12-20T08:55:02;48.05;;;36.33;;
81036;SDS011;70521;47.468;19.306;2023-12-20T08:58:03;46.10;;;30.15;;
81036;SDS011;70521;47.468;19.306;2023-12-20T09:01:04;47.17;;;35.72;;
81036;SDS011;70521;47.468;19.306;2023-12-20T09:04:05;47.53;;;42.13;;
81036;SDS011;70521;47.468;19.306;2023-12-20T09:07:07;54.05;;;48.50;;
81036;SDS011;70521;47.468;19.306;2023-12-20T09:10:08;51.45;;;40.50;;
81036;SDS011;70521;47.468;19.306;2023-12-20T09:13:09;45.75;;;35.00;;
81036;SDS011;70521;47.468;19.306;2023-12-20T09:16:10;57.72;;;45.67;;
81036;SDS011;70521;47.468;19.306;2023-12-20T09:19:11;46.78;;;36.05;;
81036;SDS011;70521;47.468;19.306;2023-12-20T09:22:12;45.67;;;33.72;;
81036;SDS011;70521;47.468;19.306;2023-12-20T09:25:13;56.00;;;38.40;;
81036;SDS011;70521;47.468;19.306;2023-12-20T09:28:15;41.17;;;36.75;;
81036;SDS011;70521;47.468;19.306;2023-12-20T09:31:16;53.83;;;48.60;;
81036;SDS011;70521;47.468;19.306;2023-12-20T09:34:17;37.03;;;29.60;;
81036;SDS011;70521;47.468;19.306;2023-12-20T09:37:18;35.17;;;31.55;;
81036;SDS011;70521;47.468;19.306;2023-12-20T09:40:19;43.05;;;31.00;;
81036;SDS011;70521;47.468;19.306;2023-12-20T09:43:20;46.92;;;33.25;;
81036;SDS011;70521;47.468;19.306;2023-12-20T09:46:24;40.22;;;36.42;;
81036;SDS011;70521;47.468;19.306;2023-12-20T09:49:27;39.70;;;31.90;;
81036;SDS011;70521;47.468;19.306;2023-12-20T09:52:28;40.15;;;34.63;;
81036;SDS011;70521;47.468;19.306;2023-12-20T09:55:30;44.60;;;36.40;;
81036;SDS011;70521;47.468;19.306;2023-12-20T09:58:32;42.65;;;38.13;;
81036;SDS011;70521;47.468;19.306;2023-12-20T10:01:34;47.85;;;37.47;;
81036;SDS011;70521;47.468;19.306;2023-12-20T10:04:35;47.20;;;39.60;;
81036;SDS011;70521;47.468;19.306;2023-12-20T10:07:36;51.80;;;35.95;;
81036;SDS011;70521;47.468;19.306;2023-12-20T10:10:37;50.22;;;45.45;;
81036;SDS011;70521;47.468;19.306;2023-12-20T10:13:41;45.08;;;40.53;;
81036;SDS011;70521;47.468;19.306;2023-12-20T10:16:42;44.45;;;36.88;;
81036;SDS011;70521;47.468;19.306;2023-12-20T10:19:43;41.83;;;37.35;;
81036;SDS011;70521;47.468;19.306;2023-12-20T10:22:44;39.00;;;32.53;;
81036;SDS011;70521;47.468;19.306;2023-12-20T10:25:49;39.25;;;35.08;;
81036;SDS011;70521;47.468;19.306;2023-12-20T10:28:56;39.85;;;34.35;;
81036;SDS011;70521;47.468;19.306;2023-12-20T10:32:00;37.85;;;31.33;;
81036;SDS011;70521;47.468;19.306;2023-12-20T10:35:03;36.33;;;31.00;;
81036;SDS011;70521;47.468;19.306;2023-12-20T10:38:05;50.50;;;45.85;;
81036;SDS011;70521;47.468;19.306;2023-12-20T10:41:06;46.72;;;42.22;;
81036;SDS011;70521;47.468;19.306;2023-12-20T10:44:08;38.38;;;33.72;;
81036;SDS011;70521;47.468;19.306;2023-12-20T10:47:09;44.10;;;39.40;;
81036;SDS011;70521;47.468;19.306;2023-12-20T10:50:12;40.80;;;34.25;;
81036;SDS011;70521;47.468;19.306;2023-12-20T10:53:13;45.08;;;40.35;;
81036;SDS011;70521;47.468;19.306;2023-12-20T10:56:18;42.40;;;36.58;;
81036;SDS011;70521;47.468;19.306;2023-12-20T10:59:19;41.17;;;35.97;;
81036;SDS011;70521;47.468;19.306;2023-12-20T11:02:21;35.97;;;30.75;;
81036;SDS011;70521;47.468;19.306;2023-12-20T11:08:39;48.90;;;44.40;;
81036;SDS011;70521;47.468;19.306;2023-12-20T11:15:02;39.88;;;33.65;;
81036;SDS011;70521;47.468;19.306;2023-12-20T11:18:05;41.50;;;34.00;;
81036;SDS011;70521;47.468;19.306;2023-12-20T11:21:07;42.95;;;38.47;;
81036;SDS011;70521;47.468;19.306;2023-12-20T11:24:08;41.70;;;31.58;;
81036;SDS011;70521;47.468;19.306;2023-12-20T11:27:10;43.63;;;39.20;;
81036;SDS011;70521;47.468;19.306;2023-12-20T11:30:11;38.97;;;34.78;;
81036;SDS011;70521;47.468;19.306;2023-12-20T11:33:15;46.30;;;36.95;;
81036;SDS011;70521;47.468;19.306;2023-12-20T11:36:20;49.13;;;39.35;;
81036;SDS011;70521;47.468;19.306;2023-12-20T11:39:21;54.80;;;41.15;;
81036;SDS011;70521;47.468;19.306;2023-12-20T11:42:22;41.38;;;34.15;;
81036;SDS011;70521;47.468;19.306;2023-12-20T11:45:24;43.72;;;34.75;;
81036;SDS011;70521;47.468;19.306;2023-12-20T11:48:25;52.70;;;47.17;;
81036;SDS011;70521;47.468;19.306;2023-12-20T11:51:26;52.10;;;46.88;;
81036;SDS011;70521;47.468;19.306;2023-12-20T11:54:27;48.33;;;42.95;;
81036;SDS011;70521;47.468;19.306;2023-12-20T11:57:28;54.30;;;41.95;;
81036;SDS011;70521;47.468;19.306;2023-12-20T12:00:29;51.47;;;45.97;;
81036;SDS011;70521;47.468;19.306;2023-12-20T12:03:30;50.60;;;43.60;;
81036;SDS011;70521;47.468;19.306;2023-12-20T12:06:31;52.53;;;41.17;;
81036;SDS011;70521;47.468;19.306;2023-12-20T12:09:32;58.25;;;52.63;;
81036;SDS011;70521;47.468;19.306;2023-12-20T12:12:33;52.28;;;43.38;;
81036;SDS011;70521;47.468;19.306;2023-12-20T12:15:35;55.35;;;49.78;;
81036;SDS011;70521;47.468;19.306;2023-12-20T12:18:35;56.05;;;43.03;;
81036;SDS011;70521;47.468;19.306;2023-12-20T12:21:37;47.05;;;36.75;;
81036;SDS011;70521;47.468;19.306;2023-12-20T12:24:38;48.67;;;41.60;;
81036;SDS011;70521;47.468;19.306;2023-12-20T12:27:40;49.83;;;41.47;;
81036;SDS011;70521;47.468;19.306;2023-12-20T12:30:41;53.92;;;48.20;;
81036;SDS011;70521;47.468;19.306;2023-12-20T12:33:42;50.85;;;38.00;;
81036;SDS011;70521;47.468;19.306;2023-12-20T12:36:44;51.90;;;43.85;;
81036;SDS011;70521;47.468;19.306;2023-12-20T12:39:46;54.22;;;45.58;;
81036;SDS011;70521;47.468;19.306;2023-12-20T12:42:47;56.80;;;40.03;;
81036;SDS011;70521;47.468;19.306;2023-12-20T12:45:48;51.38;;;43.90;;
81036;SDS011;70521;47.468;19.306;2023-12-20T12:48:49;49.95;;;38.08;;
81036;SDS011;70521;47.468;19.306;2023-12-20T12:51:54;43.70;;;39.13;;
81036;SDS011;70521;47.468;19.306;2023-12-20T12:54:58;52.50;;;43.45;;
81036;SDS011;70521;47.468;19.306;2023-12-20T12:57:59;56.22;;;45.17;;
81036;SDS011;70521;47.468;19.306;2023-12-20T13:01:00;44.95;;;38.85;;
81036;SDS011;70521;47.468;19.306;2023-12-20T13:04:01;46.42;;;38.50;;
81036;SDS011;70521;47.468;19.306;2023-12-20T13:07:04;54.33;;;42.05;;
81036;SDS011;70521;47.468;19.306;2023-12-20T13:10:06;46.20;;;40.47;;
81036;SDS011;70521;47.468;19.306;2023-12-20T13:13:06;49.88;;;40.22;;
81036;SDS011;70521;47.468;19.306;2023-12-20T13:16:08;52.20;;;44.78;;
81036;SDS011;70521;47.468;19.306;2023-12-20T13:19:08;49.90;;;44.60;;
81036;SDS011;70521;47.468;19.306;2023-12-20T13:22:10;48.35;;;42.08;;
81036;SDS011;70521;47.468;19.306;2023-12-20T13:25:11;47.25;;;41.72;;
81036;SDS011;70521;47.468;19.306;2023-12-20T13:28:12;50.65;;;42.60;;
81036;SDS011;70521;47.468;19.306;2023-12-20T13:31:13;54.20;;;48.78;;
81036;SDS011;70521;47.468;19.306;2023-12-20T13:34:14;47.75;;;42.92;;
81036;SDS011;70521;47.468;19.306;2023-12-20T13:37:15;42.85;;;38.38;;
81036;SDS011;70521;47.468;19.306;2023-12-20T13:40:16;36.80;;;32.78;;
81036;SDS011;70521;47.468;19.306;2023-12-20T13:43:18;33.30;;;28.83;;
81036;SDS011;70521;47.468;19.306;2023-12-20T13:46:21;36.35;;;33.15;;
81036;SDS011;70521;47.468;19.306;2023-12-20T13:49:22;27.63;;;25.00;;
81036;SDS011;70521;47.468;19.306;2023-12-20T13:52:26;25.85;;;23.38;;
81036;SDS011;70521;47.468;19.306;2023-12-20T13:55:27;23.90;;;21.45;;
81036;SDS011;70521;47.468;19.306;2023-12-20T13:58:28;26.00;;;23.88;;
81036;SDS011;70521;47.468;19.306;2023-12-20T14:01:29;19.30;;;17.50;;
81036;SDS011;70521;47.468;19.306;2023-12-20T14:04:31;25.45;;;23.70;;
81036;SDS011;70521;47.468;19.306;2023-12-20T14:07:31;24.55;;;22.52;;
81036;SDS011;70521;47.468;19.306;2023-12-20T14:10:33;18.75;;;17.42;;
81036;SDS011;70521;47.468;19.306;2023-12-20T14:13:33;26.98;;;25.10;;
81036;SDS011;70521;47.468;19.306;2023-12-20T14:16:34;23.33;;;21.75;;
81036;SDS011;70521;47.468;19.306;2023-12-20T14:19:35;24.83;;;22.90;;
81036;SDS011;70521;47.468;19.306;2023-12-20T14:22:36;27.83;;;25.42;;
81036;SDS011;70521;47.468;19.306;2023-12-20T14:25:39;26.75;;;24.60;;
81036;SDS011;70521;47.468;19.306;2023-12-20T14:28:41;30.10;;;27.55;;
81036;SDS011;70521;47.468;19.306;2023-12-20T14:31:42;24.00;;;21.83;;
81036;SDS011;70521;47.468;19.306;2023-12-20T14:34:43;22.38;;;20.45;;
81036;SDS011;70521;47.468;19.306;2023-12-20T14:37:43;23.02;;;20.15;;
81036;SDS011;70521;47.468;19.306;2023-12-20T14:40:45;30.80;;;28.25;;
81036;SDS011;70521;47.468;19.306;2023-12-20T14:43:46;25.42;;;23.23;;
81036;SDS011;70521;47.468;19.306;2023-12-20T14:46:47;29.98;;;27.52;;
81036;SDS011;70521;47.468;19.306;2023-12-20T14:49:48;21.27;;;19.52;;
81036;SDS011;70521;47.468;19.306;2023-12-20T14:52:49;24.45;;;22.52;;
81036;SDS011;70521;47.468;19.306;2023-12-20T14:55:50;27.13;;;25.40;;
81036;SDS011;70521;47.468;19.306;2023-12-20T14:58:52;22.52;;;20.60;;
81036;SDS011;70521;47.468;19.306;2023-12-20T15:01:53;26.70;;;24.80;;
81036;SDS011;70521;47.468;19.306;2023-12-20T15:04:54;22.17;;;20.75;;
81036;SDS011;70521;47.468;19.306;2023-12-20T15:07:55;21.63;;;20.05;;
81036;SDS011;70521;47.468;19.306;2023-12-20T15:10:56;32.20;;;30.33;;
81036;SDS011;70521;47.468;19.306;2023-12-20T15:13:57;15.82;;;14.48;;
81036;SDS011;70521;47.468;19.306;2023-12-20T15:16:58;17.25;;;16.15;;
81036;SDS011;70521;47.468;19.306;2023-12-20T15:19:59;21.80;;;20.52;;
81036;SDS011;70521;47.468;19.306;2023-12-20T15:23:00;15.52;;;14.55;;
81036;SDS011;70521;47.468;19.306;2023-12-20T15:26:07;16.40;;;15.43;;
81036;SDS011;70521;47.468;19.306;2023-12-20T15:29:08;18.17;;;17.30;;
81036;SDS011;70521;47.468;19.306;2023-12-20T15:32:13;14.18;;;13.38;;
81036;SDS011;70521;47.468;19.306;2023-12-20T15:35:14;35.25;;;33.72;;
81036;SDS011;70521;47.468;19.306;2023-12-20T15:38:15;21.83;;;20.23;;
81036;SDS011;70521;47.468;19.306;2023-12-20T15:41:18;17.15;;;16.20;;
81036;SDS011;70521;47.468;19.306;2023-12-20T15:44:19;18.45;;;17.30;;
81036;SDS011;70521;47.468;19.306;2023-12-20T15:47:20;15.05;;;14.02;;
81036;SDS011;70521;47.468;19.306;2023-12-20T15:50:21;16.67;;;15.65;;
81036;SDS011;70521;47.468;19.306;2023-12-20T15:53:22;17.13;;;16.05;;
81036;SDS011;70521;47.468;19.306;2023-12-20T15:56:23;12.85;;;11.93;;
81036;SDS011;70521;47.468;19.306;2023-12-20T15:59:24;12.90;;;11.70;;
81036;SDS011;70521;47.468;19.306;2023-12-20T16:02:25;13.77;;;12.73;;
81036;SDS011;70521;47.468;19.306;2023-12-20T16:05:27;21.08;;;19.85;;
81036;SDS011;70521;47.468;19.306;2023-12-20T16:08:28;17.77;;;16.52;;
81036;SDS011;70521;47.468;19.306;2023-12-20T16:11:29;13.07;;;12.18;;
81036;SDS011;70521;47.468;19.306;2023-12-20T16:14:30;19.25;;;18.10;;
81036;SDS011;70521;47.468;19.306;2023-12-20T16:17:31;14.82;;;13.95;;
81036;SDS011;70521;47.468;19.306;2023-12-20T16:20:34;15.35;;;14.52;;
81036;SDS011;70521;47.468;19.306;2023-12-20T16:23:35;14.18;;;13.20;;
81036;SDS011;70521;47.468;19.306;2023-12-20T16:26:36;14.25;;;13.43;;
81036;SDS011;70521;47.468;19.306;2023-12-20T16:29:37;15.70;;;14.68;;
81036;SDS011;70521;47.468;19.306;2023-12-20T16:32:41;14.00;;;13.02;;
81036;SDS011;70521;47.468;19.306;2023-12-20T16:35:41;17.30;;;16.30;;
81036;SDS011;70521;47.468;19.306;2023-12-20T16:38:43;15.23;;;14.23;;
81036;SDS011;70521;47.468;19.306;2023-12-20T16:41:44;13.52;;;12.63;;
81036;SDS011;70521;47.468;19.306;2023-12-20T16:44:45;15.73;;;14.82;;
81036;SDS011;70521;47.468;19.306;2023-12-20T16:47:46;15.75;;;14.55;;
81036;SDS011;70521;47.468;19.306;2023-12-20T16:50:47;14.98;;;14.00;;
81036;SDS011;70521;47.468;19.306;2023-12-20T16:53:48;16.52;;;15.43;;
81036;SDS011;70521;47.468;19.306;2023-12-20T16:56:49;15.50;;;14.40;;
81036;SDS011;70521;47.468;19.306;2023-12-20T16:59:50;21.10;;;19.80;;
81036;SDS011;70521;47.468;19.306;2023-12-20T17:02:51;16.90;;;15.60;;
81036;SDS011;70521;47.468;19.306;2023-12-20T17:05:52;18.27;;;16.98;;
81036;SDS011;70521;47.468;19.306;2023-12-20T17:08:53;23.17;;;21.77;;
81036;SDS011;70521;47.468;19.306;2023-12-20T17:11:53;14.75;;;13.60;;
81036;SDS011;70521;47.468;19.306;2023-12-20T17:14:55;14.70;;;13.77;;
81036;SDS011;70521;47.468;19.306;2023-12-20T17:17:56;17.90;;;16.75;;
81036;SDS011;70521;47.468;19.306;2023-12-20T17:20:57;16.98;;;15.75;;
81036;SDS011;70521;47.468;19.306;2023-12-20T17:23:58;15.65;;;14.75;;
81036;SDS011;70521;47.468;19.306;2023-12-20T17:26:59;19.83;;;18.70;;
81036;SDS011;70521;47.468;19.306;2023-12-20T17:30:00;15.93;;;14.75;;
81036;SDS011;70521;47.468;19.306;2023-12-20T17:33:02;17.98;;;16.85;;